Time;durP1;ratioP1;P1;durP2;ratioP2;P2;SDS_P1;SDS_P2;PMS_P1;PMS_P2;Temp;Humidity;BMP_temperature;BMP_pressure;BME280_temperature;BME280_humidity;BME280_pressure;Samples;Min_cycle;Max_cycle;Signal;HPM_P1;HPM_P2
2023/06/07 00:01:36;;;;;;;4.73;3.70;;;22.90;53.10;;;;;;4965164;28;20929;-83
2023/06/07 00:04:03;;;;;;;4.30;3.80;;;22.80;53.10;;;;;;4963699;28;20824;-82
2023/06/07 00:06:32;;;;;;;4.17;3.87;;;22.90;53.20;;;;;;4958483;28;20460;-83
2023/06/07 00:08:59;;;;;;;4.80;4.30;;;22.90;53.10;;;;;;4973896;28;20482;-84
2023/06/07 00:11:26;;;;;;;5.50;4.30;;;22.80;53.20;;;;;;4967320;28;20457;-82
2023/06/07 00:13:53;;;;;;;6.10;4.40;;;22.90;54.00;;;;;;4979586;28;20524;-83
2023/06/07 00:16:19;;;;;;;4.73;4.20;;;22.80;53.90;;;;;;4976733;28;20457;-83
2023/06/07 00:18:46;;;;;;;4.47;4.07;;;22.80;53.90;;;;;;4969113;28;20471;-83
2023/06/07 00:21:13;;;;;;;4.47;4.07;;;22.70;54.00;;;;;;4968251;28;20488;-81
2023/06/07 00:23:39;;;;;;;4.70;3.80;;;22.70;54.20;;;;;;4971374;28;20437;-81
2023/06/07 00:26:06;;;;;;;5.90;3.83;;;22.90;54.40;;;;;;4979201;28;20470;-82
2023/06/07 00:28:33;;;;;;;5.00;4.40;;;22.80;54.30;;;;;;4981825;28;20478;-81
2023/06/07 00:30:59;;;;;;;4.10;3.70;;;23.00;53.80;;;;;;4986991;28;20467;-80
2023/06/07 00:33:26;;;;;;;4.53;4.13;;;22.80;53.60;;;;;;4981325;28;20457;-84
2023/06/07 00:35:53;;;;;;;4.07;3.70;;;22.70;54.40;;;;;;4984224;28;20448;-82
2023/06/07 00:38:19;;;;;;;3.90;3.60;;;22.70;54.10;;;;;;4983143;28;20472;-81
2023/06/07 00:40:46;;;;;;;4.30;3.87;;;22.60;54.20;;;;;;4978301;28;20476;-82
2023/06/07 00:43:13;;;;;;;5.20;3.73;;;22.80;54.20;;;;;;4988289;28;20524;-82
2023/06/07 00:45:40;;;;;;;4.30;3.93;;;22.60;54.00;;;;;;5000847;28;20459;-82
2023/06/07 00:48:07;;;;;;;4.00;3.63;;;22.40;54.40;;;;;;4977090;28;20480;-80
2023/06/07 00:50:34;;;;;;;5.03;3.97;;;22.20;54.80;;;;;;4975925;28;20594;-83
2023/06/07 00:53:03;;;;;;;4.60;4.20;;;22.50;55.10;;;;;;4987222;28;20452;-82
2023/06/07 00:55:31;;;;;;;6.30;4.43;;;22.50;54.80;;;;;;4990067;28;20530;-83
2023/06/07 00:57:58;;;;;;;5.97;4.73;;;22.60;55.00;;;;;;4988911;28;20468;-82
2023/06/07 01:00:24;;;;;;;6.83;4.47;;;22.60;54.80;;;;;;4990089;28;20476;-83
2023/06/07 01:02:53;;;;;;;5.23;4.83;;;22.50;55.10;;;;;;4981708;28;20451;-82
2023/06/07 01:05:20;;;;;;;9.30;4.50;;;22.50;55.30;;;;;;4981803;28;20701;-81
2023/06/07 01:07:48;;;;;;;5.60;4.40;;;22.40;55.80;;;;;;4961950;28;20470;-81
2023/06/07 01:10:15;;;;;;;4.57;4.10;;;22.50;56.10;;;;;;4960151;28;20456;-81
2023/06/07 01:12:47;;;;;;;4.97;4.57;;;22.50;56.40;;;;;;4972507;28;20453;-84
2023/06/07 01:15:14;;;;;;;6.60;5.43;;;22.60;56.50;;;;;;4957434;28;20465;-83
2023/06/07 01:17:44;;;;;;;4.60;4.20;;;22.70;56.80;;;;;;4973321;28;20479;-83
2023/06/07 01:20:15;;;;;;;4.40;4.00;;;22.70;56.60;;;;;;4961467;28;20490;-82
2023/06/07 01:22:45;;;;;;;5.97;4.43;;;22.60;56.70;;;;;;4972451;28;20460;-82
2023/06/07 01:25:12;;;;;;;8.13;5.10;;;22.50;56.80;;;;;;4950773;28;20463;-83
2023/06/07 01:27:43;;;;;;;6.20;5.20;;;22.30;57.30;;;;;;4939114;28;20456;-83
2023/06/07 01:30:12;;;;;;;6.90;5.07;;;22.50;57.80;;;;;;4949310;28;20546;-83
2023/06/07 01:32:41;;;;;;;5.30;4.80;;;22.40;58.00;;;;;;4959648;28;20460;-82
2023/06/07 01:35:10;;;;;;;5.87;5.27;;;22.20;58.30;;;;;;4974046;28;20698;-81
2023/06/07 01:37:38;;;;;;;5.40;4.90;;;22.20;58.50;;;;;;4977524;28;20464;-82
2023/06/07 01:40:06;;;;;;;5.40;4.43;;;22.20;59.30;;;;;;4977219;28;20500;-82
2023/06/07 01:42:37;;;;;;;6.93;4.93;;;22.30;59.70;;;;;;4970768;28;20452;-83
2023/06/07 01:45:05;;;;;;;5.40;4.90;;;22.20;60.20;;;;;;4972435;28;20459;-83
2023/06/07 01:47:33;;;;;;;6.27;4.70;;;22.00;60.90;;;;;;4969427;28;20460;-85
2023/06/07 01:50:02;;;;;;;4.87;4.40;;;21.80;61.70;;;;;;4972262;28;20444;-83
2023/06/07 01:52:29;;;;;;;6.17;5.57;;;21.90;62.60;;;;;;4967504;28;21018;-81
2023/06/07 01:54:56;;;;;;;7.17;5.60;;;21.90;62.50;;;;;;4967198;28;20469;-83
2023/06/07 01:58:04;;;;;;;7.37;5.77;;;21.90;62.50;;;;;;4966957;28;20972;-82
2023/06/07 02:00:37;;;;;;;6.07;5.50;;;21.90;62.90;;;;;;4971252;28;20476;-83
2023/06/07 02:03:22;;;;;;;6.00;4.97;;;22.00;63.10;;;;;;4988617;28;20440;-83
2023/06/07 02:05:54;;;;;;;5.20;4.70;;;21.80;63.30;;;;;;4976337;28;20462;-82
2023/06/07 02:08:31;;;;;;;7.93;5.53;;;21.70;64.20;;;;;;4966925;28;20484;-83
2023/06/07 02:10:58;;;;;;;5.67;5.17;;;21.90;65.00;;;;;;4974101;28;20466;-82
2023/06/07 02:13:27;;;;;;;5.30;4.80;;;21.90;64.70;;;;;;4967101;28;20447;-83
2023/06/07 02:15:54;;;;;;;5.70;5.20;;;21.90;64.90;;;;;;4966055;28;20553;-82
2023/06/07 02:18:21;;;;;;;5.33;4.80;;;22.00;64.70;;;;;;4965270;28;21294;-81
2023/06/07 02:20:48;;;;;;;5.63;5.13;;;21.90;64.70;;;;;;4966187;28;20489;-82
2023/06/07 02:23:15;;;;;;;5.33;4.83;;;22.10;65.30;;;;;;4966502;28;20448;-84
2023/06/07 02:25:42;;;;;;;5.87;5.37;;;22.40;64.60;;;;;;4964740;28;20448;-82
2023/06/07 02:28:08;;;;;;;5.37;4.90;;;22.20;64.30;;;;;;4977377;28;21082;-83
2023/06/07 02:30:35;;;;;;;5.40;4.90;;;22.20;63.80;;;;;;4961265;28;20454;-82
2023/06/07 02:33:02;;;;;;;5.97;5.47;;;22.10;64.30;;;;;;4967100;28;20464;-83
2023/06/07 02:35:29;;;;;;;6.63;5.40;;;22.00;64.40;;;;;;4961171;28;20469;-83
2023/06/07 02:37:55;;;;;;;5.57;5.07;;;22.00;65.00;;;;;;4962220;28;20496;-83
2023/06/07 02:40:22;;;;;;;8.60;5.50;;;21.90;65.60;;;;;;4959933;28;20487;-80
2023/06/07 02:42:49;;;;;;;6.57;5.97;;;21.90;65.70;;;;;;4963999;28;20445;-82
2023/06/07 02:45:16;;;;;;;5.67;5.13;;;21.90;65.70;;;;;;4975404;28;20460;-83
2023/06/07 02:47:43;;;;;;;6.40;5.77;;;22.00;65.80;;;;;;4966815;28;20444;-82
2023/06/07 02:50:10;;;;;;;6.30;5.70;;;21.90;66.00;;;;;;4963344;28;20479;-83
2023/06/07 02:52:37;;;;;;;6.37;5.77;;;21.90;66.10;;;;;;4964192;28;20453;-81
2023/06/07 02:55:04;;;;;;;5.93;5.43;;;21.80;66.40;;;;;;4975541;28;20471;-81
2023/06/07 02:57:31;;;;;;;6.20;5.30;;;21.90;67.00;;;;;;4976836;28;21018;-81
2023/06/07 02:59:59;;;;;;;5.83;5.33;;;21.90;66.90;;;;;;4977336;28;20481;-82
2023/06/07 03:02:30;;;;;;;6.97;5.30;;;22.00;66.70;;;;;;4964003;28;20526;-83
2023/06/07 03:05:00;;;;;;;5.70;5.20;;;22.00;66.50;;;;;;4959791;28;20476;-82
2023/06/07 03:07:28;;;;;;;6.33;5.70;;;21.90;66.70;;;;;;4971415;28;20440;-83
2023/06/07 03:09:55;;;;;;;6.30;5.80;;;21.70;67.20;;;;;;4959105;28;20595;-83
2023/06/07 03:12:22;;;;;;;6.33;5.73;;;21.80;67.70;;;;;;4965885;28;20858;-83
2023/06/07 03:14:50;;;;;;;7.33;5.50;;;21.70;67.80;;;;;;4960467;28;20463;-84
2023/06/07 03:17:22;;;;;;;6.03;5.43;;;21.60;68.20;;;;;;4963724;28;20456;-81
2023/06/07 03:19:55;;;;;;;6.70;6.03;;;21.70;68.80;;;;;;4961443;28;20492;-81
2023/06/07 03:22:22;;;;;;;7.87;6.00;;;21.80;68.10;;;;;;4954420;28;20956;-84
2023/06/07 03:24:52;;;;;;;8.43;5.80;;;21.70;68.20;;;;;;4956372;28;20810;-82
2023/06/07 03:27:22;;;;;;;7.37;6.67;;;21.60;68.80;;;;;;4963332;28;20520;-83
2023/06/07 03:29:51;;;;;;;6.53;5.67;;;21.60;69.60;;;;;;4956365;28;20475;-82
2023/06/07 03:32:21;;;;;;;6.23;5.73;;;21.50;70.30;;;;;;4958708;28;21328;-82
2023/06/07 03:34:48;;;;;;;6.90;5.97;;;21.40;71.00;;;;;;4963639;28;20480;-83
2023/06/07 03:37:21;;;;;;;6.77;5.80;;;21.30;71.60;;;;;;4955132;28;20450;-83
2023/06/07 03:39:48;;;;;;;6.30;5.70;;;21.20;72.10;;;;;;4960782;28;20492;-83
2023/06/07 03:42:17;;;;;;;10.70;4.90;;;21.30;72.90;;;;;;4966662;28;20571;-83
2023/06/07 03:44:54;;;;;;;6.87;5.50;;;21.30;73.10;;;;;;4957729;28;20543;-83
2023/06/07 03:47:21;;;;;;;6.30;5.13;;;21.30;73.50;;;;;;4965664;28;20439;-82
2023/06/07 03:49:50;;;;;;;7.63;5.43;;;21.30;73.50;;;;;;4978294;28;20492;-82
2023/06/07 03:52:18;;;;;;;7.47;5.77;;;21.30;74.20;;;;;;4961037;28;20470;-82
2023/06/07 03:54:45;;;;;;;6.80;6.10;;;21.10;74.70;;;;;;4960049;28;20473;-82
2023/06/07 03:57:14;;;;;;;7.63;4.97;;;21.10;75.20;;;;;;4964196;28;20463;-84
2023/06/07 03:59:41;;;;;;;7.20;5.90;;;21.10;75.80;;;;;;4981370;28;20523;-81
2023/06/07 04:02:08;;;;;;;8.13;4.93;;;21.00;76.10;;;;;;4981625;28;20472;-82
2023/06/07 04:04:34;;;;;;;6.40;5.80;;;21.00;76.50;;;;;;4968386;28;20790;-83
2023/06/07 04:07:02;;;;;;;5.67;5.13;;;21.10;76.80;;;;;;4969112;28;20459;-80
2023/06/07 04:09:29;;;;;;;6.87;5.30;;;21.10;78.00;;;;;;4965490;28;20474;-83
2023/06/07 04:11:56;;;;;;;6.00;5.40;;;21.30;77.30;;;;;;4969886;28;20479;-81
2023/06/07 04:14:23;;;;;;;7.40;5.70;;;21.40;76.10;;;;;;4964586;28;20460;-81
2023/06/07 04:16:49;;;;;;;6.03;5.30;;;21.40;76.20;;;;;;4962502;28;20470;-83
2023/06/07 04:19:17;;;;;;;6.30;5.70;;;21.20;76.40;;;;;;4972935;28;20510;-81
2023/06/07 04:21:43;;;;;;;6.37;5.70;;;21.10;77.20;;;;;;4962769;28;20484;-83
2023/06/07 04:24:10;;;;;;;5.33;4.80;;;21.00;77.80;;;;;;4964649;28;20463;-84
2023/06/07 04:26:40;;;;;;;6.70;4.70;;;21.00;78.40;;;;;;4964165;28;20445;-82
2023/06/07 04:29:07;;;;;;;7.50;6.13;;;21.00;78.80;;;;;;4970881;28;20482;-83
2023/06/07 04:31:39;;;;;;;5.60;5.10;;;21.00;79.00;;;;;;4963779;28;20465;-81
2023/06/07 04:34:09;;;;;;;6.60;5.20;;;21.00;79.30;;;;;;4973458;28;20587;-84
2023/06/07 04:36:38;;;;;;;7.13;5.00;;;20.90;79.90;;;;;;4957199;28;20456;-82
2023/06/07 04:39:08;;;;;;;5.40;4.90;;;20.90;80.40;;;;;;4962870;28;20479;-80
2023/06/07 04:41:36;;;;;;;9.37;4.80;;;21.00;80.50;;;;;;4962289;28;20857;-82
2023/06/07 04:44:06;;;;;;;5.50;5.00;;;21.00;80.90;;;;;;4968851;28;20507;-82
2023/06/07 04:46:33;;;;;;;6.83;5.70;;;20.90;81.10;;;;;;4975512;28;20462;-81
2023/06/07 04:49:00;;;;;;;7.03;5.60;;;20.90;81.10;;;;;;4961329;28;20475;-84
2023/06/07 04:51:29;;;;;;;6.30;5.70;;;20.80;81.60;;;;;;4959651;28;20821;-81
2023/06/07 04:54:01;;;;;;;7.60;4.90;;;20.80;82.00;;;;;;4972363;28;20467;-81
2023/06/07 04:56:28;;;;;;;6.33;5.70;;;20.80;82.10;;;;;;4983476;28;20427;-81
2023/06/07 04:58:55;;;;;;;6.83;5.63;;;20.80;82.20;;;;;;4987120;28;20468;-82
2023/06/07 05:01:22;;;;;;;7.10;5.30;;;20.80;82.30;;;;;;4985883;28;20513;-80
2023/06/07 05:03:57;;;;;;;6.03;5.43;;;20.80;82.30;;;;;;4987186;28;20468;-83
2023/06/07 05:06:23;;;;;;;6.77;5.20;;;20.80;82.00;;;;;;4983387;28;20470;-82
2023/06/07 05:08:50;;;;;;;6.40;5.10;;;20.90;82.20;;;;;;4985565;28;20467;-82
2023/06/07 05:11:17;;;;;;;10.00;5.27;;;20.90;82.20;;;;;;4984564;28;20448;-84
2023/06/07 05:13:44;;;;;;;5.60;5.00;;;21.20;81.30;;;;;;4985318;28;20537;-82
2023/06/07 05:16:16;;;;;;;8.90;5.43;;;21.20;80.80;;;;;;4984781;28;20439;-83
2023/06/07 05:18:48;;;;;;;6.90;5.00;;;21.30;80.70;;;;;;4982012;28;20486;-80
2023/06/07 05:21:16;;;;;;;7.00;5.40;;;21.50;80.50;;;;;;4972641;28;20487;-80
2023/06/07 05:23:43;;;;;;;7.20;5.03;;;21.30;80.10;;;;;;4963531;28;20953;-80
2023/06/07 05:26:12;;;;;;;6.73;5.70;;;21.10;80.80;;;;;;4980533;28;20531;-83
2023/06/07 05:28:38;;;;;;;9.53;5.80;;;21.00;81.40;;;;;;4969562;28;20487;-82
2023/06/07 05:31:05;;;;;;;5.87;5.23;;;21.00;81.60;;;;;;4960605;28;20950;-83
2023/06/07 05:33:34;;;;;;;8.20;5.97;;;21.10;81.80;;;;;;4957210;28;20532;-81
2023/06/07 05:36:01;;;;;;;7.67;5.40;;;21.00;81.50;;;;;;4975684;28;20447;-81
2023/06/07 05:38:28;;;;;;;5.70;5.20;;;20.90;81.70;;;;;;4963249;28;20519;-82
2023/06/07 05:40:55;;;;;;;7.50;5.07;;;20.90;82.00;;;;;;4962673;28;20550;-82
2023/06/07 05:43:22;;;;;;;7.23;5.77;;;21.20;81.30;;;;;;4961740;28;20490;-82
2023/06/07 05:45:49;;;;;;;7.73;5.70;;;21.30;81.00;;;;;;4957201;28;20464;-81
2023/06/07 05:48:16;;;;;;;10.00;5.63;;;21.20;81.00;;;;;;4959381;28;20472;-83
2023/06/07 05:50:43;;;;;;;6.30;4.60;;;21.00;80.90;;;;;;4959039;28;20444;-82
2023/06/07 05:53:10;;;;;;;6.03;4.73;;;20.90;81.30;;;;;;4972347;28;20473;-83
2023/06/07 05:55:36;;;;;;;7.27;4.67;;;21.00;81.40;;;;;;4960149;28;20463;-82
2023/06/07 05:58:06;;;;;;;7.40;5.13;;;21.00;81.80;;;;;;4954276;28;20936;-83
2023/06/07 06:00:33;;;;;;;7.40;5.17;;;21.00;81.80;;;;;;4958175;28;20968;-82
2023/06/07 06:03:04;;;;;;;5.60;4.60;;;20.90;81.70;;;;;;4971891;28;20492;-83
2023/06/07 06:05:31;;;;;;;11.23;5.50;;;20.90;82.10;;;;;;4955341;28;20565;-81
2023/06/07 06:08:00;;;;;;;7.73;5.73;;;20.80;82.30;;;;;;4952193;28;21066;-82
2023/06/07 06:10:27;;;;;;;5.50;4.70;;;20.80;82.60;;;;;;4965879;28;20459;-82
2023/06/07 06:12:55;;;;;;;5.67;5.03;;;21.00;82.70;;;;;;4954045;28;20519;-80
2023/06/07 06:15:22;;;;;;;5.47;4.87;;;20.90;82.60;;;;;;4953907;28;21178;-82
2023/06/07 06:17:53;;;;;;;5.80;4.23;;;20.90;82.70;;;;;;4955006;28;20584;-82
2023/06/07 06:20:21;;;;;;;5.63;4.73;;;20.80;82.80;;;;;;4953504;28;20468;-82
2023/06/07 06:22:47;;;;;;;7.67;5.17;;;20.80;82.90;;;;;;4959524;28;20491;-82
2023/06/07 06:25:14;;;;;;;6.80;6.20;;;21.30;82.00;;;;;;4957312;28;20468;-83
2023/06/07 06:27:41;;;;;;;5.50;4.80;;;21.30;80.80;;;;;;4957872;28;20523;-81
2023/06/07 06:30:08;;;;;;;5.03;4.53;;;21.10;81.00;;;;;;4971088;28;20464;-81
2023/06/07 06:32:35;;;;;;;6.20;5.07;;;21.00;81.80;;;;;;4957899;28;20461;-81
2023/06/07 06:35:03;;;;;;;6.07;4.83;;;20.90;81.90;;;;;;4967061;28;20523;-81
2023/06/07 06:37:30;;;;;;;7.83;4.90;;;20.90;83.10;;;;;;4957070;28;20491;-83
2023/06/07 06:39:56;;;;;;;6.23;4.87;;;21.20;81.60;;;;;;4962558;28;20490;-83
2023/06/07 06:42:23;;;;;;;7.00;4.83;;;21.20;81.30;;;;;;4960946;28;20486;-83
2023/06/07 06:44:50;;;;;;;5.37;4.47;;;21.30;80.80;;;;;;4960528;28;20467;-82
2023/06/07 06:47:17;;;;;;;5.70;4.90;;;21.30;80.60;;;;;;4970427;28;20495;-84
2023/06/07 06:49:43;;;;;;;5.77;4.50;;;21.20;80.80;;;;;;4977640;28;20916;-83
2023/06/07 06:52:10;;;;;;;5.70;4.93;;;21.20;80.90;;;;;;4972434;28;20483;-83
2023/06/07 06:54:37;;;;;;;5.13;4.50;;;21.20;80.80;;;;;;4959085;28;20461;-80
2023/06/07 06:57:05;;;;;;;6.77;4.97;;;21.40;80.20;;;;;;4958700;28;21003;-83
2023/06/07 06:59:35;;;;;;;7.20;5.47;;;21.50;79.00;;;;;;4967416;28;20468;-83
2023/06/07 07:02:02;;;;;;;4.97;4.57;;;21.40;79.00;;;;;;4969430;28;20563;-82
2023/06/07 07:04:30;;;;;;;7.73;4.83;;;21.30;79.70;;;;;;4973963;28;20525;-84
2023/06/07 07:06:57;;;;;;;5.00;4.53;;;21.20;79.90;;;;;;4959819;28;20462;-84
2023/06/07 07:09:23;;;;;;;6.20;5.00;;;21.20;80.60;;;;;;4959091;28;20468;-82
2023/06/07 07:11:50;;;;;;;5.67;4.77;;;21.50;79.00;;;;;;4956332;28;20531;-83
2023/06/07 07:14:17;;;;;;;7.40;5.50;;;21.30;79.60;;;;;;4961285;28;20921;-83
2023/06/07 07:16:43;;;;;;;6.23;5.13;;;21.20;80.90;;;;;;4969859;28;20455;-83
2023/06/07 07:19:10;;;;;;;8.87;5.87;;;21.30;81.00;;;;;;4961601;28;20992;-84
2023/06/07 07:21:37;;;;;;;6.27;3.90;;;21.30;80.00;;;;;;4958934;28;20483;-83
2023/06/07 07:24:05;;;;;;;7.03;5.23;;;21.20;80.70;;;;;;4956961;28;20474;-84
2023/06/07 07:26:31;;;;;;;6.07;4.70;;;21.20;81.30;;;;;;4956047;28;20460;-82
2023/06/07 07:28:58;;;;;;;7.60;6.17;;;21.70;80.80;;;;;;4972225;28;20448;-81
2023/06/07 07:31:25;;;;;;;8.17;5.30;;;21.70;80.20;;;;;;4982940;28;20531;-83
2023/06/07 07:33:52;;;;;;;10.00;5.70;;;21.70;80.00;;;;;;4979603;28;20494;-84
2023/06/07 07:36:21;;;;;;;8.13;5.20;;;21.50;80.50;;;;;;4971867;28;22238;-82
2023/06/07 07:38:48;;;;;;;5.57;4.70;;;21.30;82.40;;;;;;4969579;28;20465;-83
2023/06/07 07:41:15;;;;;;;5.50;4.80;;;21.50;82.10;;;;;;4968439;28;20500;-83
2023/06/07 07:43:42;;;;;;;9.00;6.00;;;21.30;82.60;;;;;;4964974;28;20979;-84
2023/06/07 07:46:09;;;;;;;5.80;4.90;;;21.20;84.00;;;;;;4964932;28;20448;-83
2023/06/07 07:48:36;;;;;;;8.40;5.87;;;21.20;85.30;;;;;;4967967;28;20524;-85
2023/06/07 07:51:03;;;;;;;7.90;6.20;;;21.00;85.90;;;;;;4993928;28;20519;-81
2023/06/07 07:53:29;;;;;;;9.50;6.33;;;21.30;86.80;;;;;;5006897;28;20449;-81
2023/06/07 07:55:56;;;;;;;6.43;5.73;;;21.20;86.20;;;;;;5000245;28;20437;-82
2023/06/07 07:58:25;;;;;;;6.30;5.70;;;21.30;87.40;;;;;;4986512;28;20552;-82
2023/06/07 08:00:56;;;;;;;8.80;6.57;;;21.50;87.20;;;;;;4947788;28;20451;-80
2023/06/07 08:03:23;;;;;;;6.60;5.93;;;21.50;87.10;;;;;;4932755;28;20483;-83
2023/06/07 08:05:50;;;;;;;8.30;6.50;;;21.50;87.50;;;;;;4952100;28;21129;-82
2023/06/07 08:08:17;;;;;;;9.27;6.63;;;21.50;87.90;;;;;;4951284;28;20482;-82
2023/06/07 08:10:45;;;;;;;7.57;5.80;;;21.60;87.80;;;;;;4953028;28;20457;-83
2023/06/07 08:13:12;;;;;;;9.10;6.30;;;21.40;87.70;;;;;;4951866;28;20444;-82
2023/06/07 08:15:39;;;;;;;7.10;6.40;;;21.20;88.20;;;;;;4959799;28;20963;-83
2023/06/07 08:18:06;;;;;;;7.10;6.37;;;21.20;89.30;;;;;;4962045;28;20502;-82
2023/06/07 08:20:33;;;;;;;6.63;4.80;;;21.10;89.70;;;;;;4955148;28;20468;-82
2023/06/07 08:23:00;;;;;;;5.80;5.30;;;21.20;90.00;;;;;;4947952;28;20482;-84
2023/06/07 08:25:26;;;;;;;7.90;5.53;;;21.30;89.70;;;;;;4954036;28;21100;-82
2023/06/07 08:27:53;;;;;;;8.37;5.90;;;21.40;89.40;;;;;;4954879;28;20583;-82
2023/06/07 08:30:20;;;;;;;8.20;6.63;;;21.40;89.30;;;;;;4965964;28;20458;-83
2023/06/07 08:32:47;;;;;;;5.90;5.33;;;21.50;89.30;;;;;;4967177;28;21948;-82
2023/06/07 08:35:16;;;;;;;6.80;6.10;;;21.60;88.70;;;;;;4960883;28;20463;-83
2023/06/07 08:37:46;;;;;;;8.47;5.67;;;21.70;88.50;;;;;;4957985;28;20473;-82
2023/06/07 08:40:17;;;;;;;8.60;6.40;;;22.30;84.90;;;;;;4963236;28;20454;-83
2023/06/07 08:42:44;;;;;;;7.33;5.60;;;22.70;83.50;;;;;;4960845;28;20519;-81
2023/06/07 08:45:12;;;;;;;8.63;6.40;;;22.60;82.70;;;;;;4969575;28;20490;-82
2023/06/07 08:47:44;;;;;;;7.47;6.20;;;22.50;83.10;;;;;;4979643;28;20566;-81
2023/06/07 08:50:17;;;;;;;11.63;6.70;;;22.50;83.70;;;;;;4962047;28;20459;-82
2023/06/07 08:52:52;;;;;;;7.83;5.87;;;23.30;82.30;;;;;;4960654;28;20461;-83
2023/06/07 08:55:25;;;;;;;7.17;6.07;;;23.80;79.40;;;;;;4954139;28;20492;-83
2023/06/07 08:57:55;;;;;;;6.77;6.17;;;23.70;79.00;;;;;;4959365;28;20506;-82
2023/06/07 09:00:24;;;;;;;7.00;6.07;;;23.80;79.00;;;;;;4956174;28;20476;-81
2023/06/07 09:02:56;;;;;;;8.70;6.90;;;24.00;78.20;;;;;;4960111;28;20838;-83
2023/06/07 09:05:25;;;;;;;7.83;6.50;;;24.90;76.10;;;;;;4963179;28;20471;-84
2023/06/07 09:07:57;;;;;;;7.10;6.40;;;25.50;71.80;;;;;;4972189;28;20476;-84
2023/06/07 09:10:24;;;;;;;5.83;5.33;;;25.40;71.10;;;;;;4961689;28;20523;-83
2023/06/07 09:12:51;;;;;;;6.30;5.70;;;25.60;71.10;;;;;;4960325;28;20463;-83
2023/06/07 09:15:21;;;;;;;5.87;5.20;;;26.10;68.50;;;;;;4958168;28;20468;-81
2023/06/07 09:17:58;;;;;;;5.97;5.37;;;27.10;65.60;;;;;;4974213;28;20575;-84
2023/06/07 09:20:33;;;;;;;5.77;5.27;;;26.90;65.50;;;;;;4956832;28;20875;-84
2023/06/07 09:23:14;;;;;;;6.20;5.60;;;26.90;64.40;;;;;;4961875;28;20996;-82
2023/06/07 09:25:51;;;;;;;5.80;5.20;;;26.60;62.90;;;;;;4965930;28;20458;-82
2023/06/07 09:28:21;;;;;;;6.13;5.43;;;27.50;62.60;;;;;;4964722;28;20487;-83
2023/06/07 09:31:02;;;;;;;7.60;6.10;;;28.30;58.80;;;;;;4962611;28;20535;-83
2023/06/07 09:33:44;;;;;;;6.70;4.90;;;27.80;59.00;;;;;;4960440;28;20471;-82
2023/06/07 09:36:16;;;;;;;5.10;4.50;;;27.70;58.60;;;;;;4972490;28;20474;-85
2023/06/07 09:38:56;;;;;;;7.40;4.83;;;28.20;57.60;;;;;;4961268;28;20561;-83
2023/06/07 09:41:50;;;;;;;5.30;4.70;;;28.50;56.50;;;;;;4974635;28;20477;-83
2023/06/07 09:44:23;;;;;;;5.73;4.80;;;28.50;56.70;;;;;;4968721;28;20456;-81
2023/06/07 09:46:51;;;;;;;5.83;5.30;;;28.00;56.60;;;;;;4971979;28;20459;-84
2023/06/07 09:49:32;;;;;;;6.00;5.03;;;27.90;57.50;;;;;;4966982;28;20558;-84
2023/06/07 09:52:13;;;;;;;5.13;4.70;;;27.20;58.40;;;;;;4980715;28;20914;-83
2023/06/07 09:54:44;;;;;;;7.00;4.93;;;26.80;59.70;;;;;;4971900;28;20465;-83
2023/06/07 09:57:28;;;;;;;6.70;5.60;;;26.20;61.00;;;;;;4978068;28;20465;-84
2023/06/07 09:59:58;;;;;;;7.27;6.30;;;26.10;62.30;;;;;;4970975;28;20468;-81
2023/06/07 10:02:28;;;;;;;6.97;5.70;;;25.70;63.60;;;;;;4986260;28;20471;-83
2023/06/07 10:04:56;;;;;;;6.70;5.87;;;25.90;64.20;;;;;;5001678;28;20479;-81
2023/06/07 10:07:32;;;;;;;6.43;5.83;;;25.80;64.20;;;;;;4987849;28;20462;-83
2023/06/07 10:10:01;;;;;;;7.20;5.33;;;26.20;63.90;;;;;;4988734;28;20507;-82
2023/06/07 10:12:30;;;;;;;7.23;5.40;;;26.30;62.80;;;;;;4988090;28;20440;-82
2023/06/07 10:15:09;;;;;;;5.30;4.90;;;26.60;61.80;;;;;;4985791;28;20453;-82
2023/06/07 10:18:01;;;;;;;6.97;6.30;;;27.30;60.70;;;;;;4965150;28;20458;-83
2023/06/07 10:20:35;;;;;;;6.83;5.70;;;27.50;59.00;;;;;;4967737;28;20451;-84
2023/06/07 10:23:08;;;;;;;6.60;5.90;;;27.10;59.80;;;;;;4963899;28;20478;-82
2023/06/07 10:25:39;;;;;;;7.60;6.17;;;27.00;61.10;;;;;;4957247;28;20467;-82
2023/06/07 10:28:17;;;;;;;6.20;5.60;;;26.20;62.30;;;;;;4960099;28;20474;-85
2023/06/07 10:30:57;;;;;;;6.57;5.77;;;25.90;64.70;;;;;;4957721;28;20447;-85
2023/06/07 10:33:26;;;;;;;6.57;5.97;;;25.80;64.80;;;;;;4958253;28;20444;-83
2023/06/07 10:35:55;;;;;;;6.53;5.93;;;25.50;66.10;;;;;;4958351;28;20491;-82
2023/06/07 10:38:22;;;;;;;7.50;6.70;;;25.10;67.40;;;;;;4978658;28;20471;-83
2023/06/07 10:40:52;;;;;;;7.67;6.87;;;24.80;69.50;;;;;;4965757;28;20461;-83
2023/06/07 10:43:19;;;;;;;7.43;6.60;;;24.60;70.10;;;;;;4957385;28;20490;-83
2023/06/07 10:45:47;;;;;;;8.13;6.50;;;24.40;70.80;;;;;;4962273;28;21270;-83
2023/06/07 10:48:34;;;;;;;8.17;5.97;;;24.40;71.90;;;;;;4958580;28;20476;-83
2023/06/07 10:51:03;;;;;;;6.90;6.20;;;24.10;71.80;;;;;;4960336;28;20496;-83
2023/06/07 10:53:57;;;;;;;8.90;7.60;;;24.20;73.10;;;;;;4958249;28;21270;-83
2023/06/07 10:56:30;;;;;;;8.03;7.23;;;24.80;71.50;;;;;;4958770;28;20453;-83
2023/06/07 10:59:16;;;;;;;7.40;6.60;;;24.50;71.10;;;;;;4956198;28;20468;-84
2023/06/07 11:01:48;;;;;;;9.30;7.77;;;24.10;72.50;;;;;;4957388;28;20464;-84
2023/06/07 11:05:10;;;;;;;8.47;6.90;;;23.80;73.40;;;;;;4980497;28;20467;-85
2023/06/07 11:08:21;;;;;;;10.70;8.00;;;23.40;76.00;;;;;;4979471;28;20594;-84
2023/06/07 11:11:41;;;;;;;8.10;7.33;;;23.20;77.70;;;;;;4972996;28;20452;-84
2023/06/07 11:14:16;;;;;;;9.37;7.67;;;23.20;78.70;;;;;;4975787;28;21817;-83
2023/06/07 11:16:48;;;;;;;7.83;6.70;;;23.50;78.60;;;;;;4987638;28;20461;-86
2023/06/07 11:19:20;;;;;;;9.73;7.70;;;23.50;78.30;;;;;;5467341;22;20492;-84
2023/06/07 11:22:00;;;;;;;9.20;7.20;;;23.50;78.40;;;;;;4988908;28;20466;-85
2023/06/07 11:24:29;;;;;;;9.30;8.30;;;23.50;78.90;;;;;;4990230;28;20502;-84
2023/06/07 11:27:10;;;;;;;10.37;8.37;;;23.80;78.20;;;;;;5006284;28;20546;-83
2023/06/07 11:29:52;;;;;;;8.73;7.47;;;23.70;78.00;;;;;;4987583;28;20487;-83
2023/06/07 11:32:22;;;;;;;8.60;7.80;;;23.70;78.00;;;;;;4986926;28;20459;-84
2023/06/07 11:35:05;;;;;;;10.87;8.97;;;23.80;78.60;;;;;;4984241;28;20470;-84
2023/06/07 11:37:45;;;;;;;9.50;8.50;;;23.70;78.50;;;;;;4988881;28;20451;-84
2023/06/07 11:40:31;;;;;;;9.07;8.20;;;23.80;78.50;;;;;;4984747;28;20536;-83
2023/06/07 11:43:13;;;;;;;10.57;9.57;;;23.70;78.90;;;;;;5002491;28;20490;-84
2023/06/07 11:46:04;;;;;;;12.70;10.70;;;23.60;79.70;;;;;;4988250;28;20468;-86
2023/06/07 11:48:39;;;;;;;10.73;9.20;;;23.50;80.50;;;;;;4989985;28;20538;-85
2023/06/07 11:51:06;;;;;;;10.50;9.30;;;23.40;81.10;;;;;;4986421;28;20459;-84
2023/06/07 11:53:56;;;;;;;;;;;;;;;;;;;;;
2023/06/07 11:57:33;;;;;;;11.13;10.03;;;23.40;82.20;;;;;;4988619;28;20502;-83
2023/06/07 12:03:27;;;;;;;10.80;9.80;;;24.10;80.70;;;;;;5018880;28;20489;-85
2023/06/07 12:05:57;;;;;;;11.20;9.53;;;24.20;79.80;;;;;;5015924;28;20476;-81
2023/06/07 12:08:34;;;;;;;11.83;10.63;;;24.50;78.80;;;;;;5022664;28;20488;-83
2023/06/07 12:11:03;;;;;;;12.10;10.90;;;24.30;79.00;;;;;;5027073;28;20481;-84
2023/06/07 12:13:41;;;;;;;11.80;9.80;;;24.30;79.30;;;;;;5029094;28;20465;-82
2023/06/07 12:16:21;;;;;;;10.77;9.70;;;24.30;79.10;;;;;;4983280;28;21111;-83
2023/06/07 12:18:56;;;;;;;11.47;10.27;;;24.30;78.70;;;;;;5005139;28;20483;-84
2023/06/07 12:21:45;;;;;;;10.90;9.90;;;24.30;78.00;;;;;;5005120;28;20535;-82
2023/06/07 12:24:18;;;;;;;12.37;11.27;;;24.30;79.00;;;;;;5010926;28;20470;-83
2023/06/07 12:26:48;;;;;;;10.73;9.73;;;24.10;78.70;;;;;;5006192;28;20788;-83
2023/06/07 12:29:27;;;;;;;12.07;10.67;;;24.00;81.00;;;;;;5006851;28;20484;-85
2023/06/07 12:32:02;;;;;;;14.20;12.57;;;23.90;83.10;;;;;;5009280;28;20460;-82
2023/06/07 12:35:07;;;;;;;14.10;12.60;;;24.20;86.30;;;;;;5020007;28;20473;-84
2023/06/07 12:38:12;;;;;;;14.03;12.53;;;23.80;88.60;;;;;;5009220;28;20480;-85
2023/06/07 12:40:50;;;;;;;16.27;14.57;;;23.70;90.10;;;;;;5022168;28;20464;-86
2023/06/07 12:43:48;;;;;;;16.03;13.60;;;23.30;91.20;;;;;;5024024;28;20588;-84
2023/06/07 12:46:47;;;;;;;15.77;13.40;;;23.00;93.30;;;;;;5020555;28;20453;-85
2023/06/07 12:56:52;;;;;;;;;;;;;;;;;;;;;
2023/06/07 12:59:57;;;;;;;21.23;15.93;;;22.70;95.80;;;;;;5049953;23;20536;-79
2023/06/07 13:02:56;;;;;;;19.23;15.60;;;22.80;95.60;;;;;;4970537;28;20464;-82
2023/06/07 13:05:49;;;;;;;18.60;15.50;;;22.80;95.60;;;;;;5005984;28;20459;-84
2023/06/07 13:08:26;;;;;;;19.33;17.23;;;22.70;95.70;;;;;;5014602;28;20577;-85
2023/06/07 13:11:18;;;;;;;19.67;16.50;;;22.70;95.90;;;;;;4994147;28;20459;-82
2023/06/07 13:13:51;;;;;;;22.63;15.80;;;22.60;97.10;;;;;;4997832;28;20543;-85
2023/06/07 13:16:34;;;;;;;17.43;14.67;;;22.60;97.40;;;;;;4995000;28;20488;-85
2023/06/07 13:19:21;;;;;;;21.07;16.20;;;22.60;97.60;;;;;;4987691;28;20577;-84
2023/06/07 13:21:56;;;;;;;20.30;17.27;;;23.00;97.40;;;;;;4993512;28;20462;-85